sensor_id;sensor_type;location;lat;lon;timestamp;pressure;altitude;pressure_sealevel;temperature;humidity
18167;BME280;9208;42.688;23.404;2023-05-01T00:00:51;95452.63;;;12.42;100.00
18167;BME280;9208;42.688;23.404;2023-05-01T00:03:18;95457.06;;;12.34;100.00
18167;BME280;9208;42.688;23.404;2023-05-01T00:05:44;95445.53;;;12.30;100.00
18167;BME280;9208;42.688;23.404;2023-05-01T00:08:10;95460.00;;;12.25;100.00
18167;BME280;9208;42.688;23.404;2023-05-01T00:10:36;95457.63;;;12.13;100.00
18167;BME280;9208;42.688;23.404;2023-05-01T00:13:02;95462.13;;;12.10;100.00
18167;BME280;9208;42.688;23.404;2023-05-01T00:15:29;95458.56;;;12.04;100.00
18167;BME280;9208;42.688;23.404;2023-05-01T00:17:54;95456.75;;;11.96;100.00
18167;BME280;9208;42.688;23.404;2023-05-01T00:20:20;95460.25;;;11.96;100.00
18167;BME280;9208;42.688;23.404;2023-05-01T00:22:46;95463.69;;;11.91;100.00
18167;BME280;9208;42.688;23.404;2023-05-01T00:25:12;95460.47;;;11.93;100.00
18167;BME280;9208;42.688;23.404;2023-05-01T00:27:38;95459.38;;;11.85;100.00
18167;BME280;9208;42.688;23.404;2023-05-01T00:30:04;95470.22;;;11.94;100.00
18167;BME280;9208;42.688;23.404;2023-05-01T00:32:30;95467.91;;;11.87;100.00
18167;BME280;9208;42.688;23.404;2023-05-01T00:34:55;95474.53;;;11.75;100.00
18167;BME280;9208;42.688;23.404;2023-05-01T00:37:22;95474.53;;;11.75;100.00
18167;BME280;9208;42.688;23.404;2023-05-01T00:39:48;95470.97;;;11.69;100.00
18167;BME280;9208;42.688;23.404;2023-05-01T00:42:14;95478.69;;;11.65;100.00
18167;BME280;9208;42.688;23.404;2023-05-01T00:44:39;95475.38;;;11.61;100.00
18167;BME280;9208;42.688;23.404;2023-05-01T00:47:05;95475.38;;;11.61;100.00
18167;BME280;9208;42.688;23.404;2023-05-01T00:49:30;95486.63;;;11.63;100.00
18167;BME280;9208;42.688;23.404;2023-05-01T00:51:56;95472.91;;;11.63;100.00
18167;BME280;9208;42.688;23.404;2023-05-01T00:54:23;95484.03;;;11.79;100.00
18167;BME280;9208;42.688;23.404;2023-05-01T00:56:50;95488.34;;;11.86;100.00
18167;BME280;9208;42.688;23.404;2023-05-01T00:59:16;95492.34;;;11.85;100.00
18167;BME280;9208;42.688;23.404;2023-05-01T01:01:42;95492.44;;;11.70;100.00
18167;BME280;9208;42.688;23.404;2023-05-01T01:04:07;95497.34;;;11.61;100.00
18167;BME280;9208;42.688;23.404;2023-05-01T01:06:51;95491.94;;;11.66;100.00
18167;BME280;9208;42.688;23.404;2023-05-01T01:15:15;95493.41;;;11.47;100.00
18167;BME280;9208;42.688;23.404;2023-05-01T01:18:00;95509.16;;;11.47;100.00
18167;BME280;9208;42.688;23.404;2023-05-01T01:23:00;95507.75;;;11.57;100.00
18167;BME280;9208;42.688;23.404;2023-05-01T01:25:46;95505.41;;;11.50;100.00
18167;BME280;9208;42.688;23.404;2023-05-01T01:28:31;95515.66;;;11.49;100.00
18167;BME280;9208;42.688;23.404;2023-05-01T01:31:09;95510.88;;;11.44;100.00
18167;BME280;9208;42.688;23.404;2023-05-01T01:34:43;95516.88;;;11.48;100.00
18167;BME280;9208;42.688;23.404;2023-05-01T01:37:11;95516.28;;;11.39;100.00
18167;BME280;9208;42.688;23.404;2023-05-01T01:39:52;95518.13;;;11.27;100.00
18167;BME280;9208;42.688;23.404;2023-05-01T01:42:21;95515.78;;;11.20;100.00
18167;BME280;9208;42.688;23.404;2023-05-01T01:44:53;95517.25;;;11.16;100.00
18167;BME280;9208;42.688;23.404;2023-05-01T01:47:21;95509.16;;;11.07;100.00
18167;BME280;9208;42.688;23.404;2023-05-01T01:49:50;95512.38;;;11.05;100.00
18167;BME280;9208;42.688;23.404;2023-05-01T01:52:19;95498.78;;;10.96;100.00
18167;BME280;9208;42.688;23.404;2023-05-01T01:54:54;95493.75;;;10.75;100.00
18167;BME280;9208;42.688;23.404;2023-05-01T01:57:24;95514.34;;;10.70;100.00
18167;BME280;9208;42.688;23.404;2023-05-01T01:59:50;95505.06;;;10.82;100.00
18167;BME280;9208;42.688;23.404;2023-05-01T02:02:18;95515.00;;;10.80;100.00
18167;BME280;9208;42.688;23.404;2023-05-01T02:04:47;95518.56;;;10.86;100.00
18167;BME280;9208;42.688;23.404;2023-05-01T02:07:13;95512.41;;;10.91;100.00
18167;BME280;9208;42.688;23.404;2023-05-01T02:09:41;95511.00;;;10.95;100.00
18167;BME280;9208;42.688;23.404;2023-05-01T02:12:09;95511.84;;;10.87;100.00
18167;BME280;9208;42.688;23.404;2023-05-01T02:14:36;95509.88;;;10.87;100.00
18167;BME280;9208;42.688;23.404;2023-05-01T02:17:01;95505.34;;;10.84;100.00
18167;BME280;9208;42.688;23.404;2023-05-01T02:19:28;95519.41;;;10.92;100.00
18167;BME280;9208;42.688;23.404;2023-05-01T02:21:56;95520.97;;;10.98;100.00
18167;BME280;9208;42.688;23.404;2023-05-01T02:24:23;95517.34;;;10.87;100.00
18167;BME280;9208;42.688;23.404;2023-05-01T02:26:57;95518.22;;;10.78;100.00
18167;BME280;9208;42.688;23.404;2023-05-01T02:29:25;95511.22;;;10.77;100.00
18167;BME280;9208;42.688;23.404;2023-05-01T02:31:52;95510.09;;;10.84;100.00
18167;BME280;9208;42.688;23.404;2023-05-01T02:34:18;95508.06;;;10.84;100.00
18167;BME280;9208;42.688;23.404;2023-05-01T02:36:43;95499.09;;;10.84;100.00
18167;BME280;9208;42.688;23.404;2023-05-01T02:39:09;95501.22;;;10.74;100.00
18167;BME280;9208;42.688;23.404;2023-05-01T02:41:36;95501.31;;;10.65;100.00
18167;BME280;9208;42.688;23.404;2023-05-01T02:44:04;95504.44;;;10.58;100.00
18167;BME280;9208;42.688;23.404;2023-05-01T02:46:34;95508.59;;;10.68;100.00
18167;BME280;9208;42.688;23.404;2023-05-01T02:49:01;95487.66;;;10.51;100.00
18167;BME280;9208;42.688;23.404;2023-05-01T02:51:29;95499.38;;;10.51;100.00
18167;BME280;9208;42.688;23.404;2023-05-01T02:53:56;95510.91;;;10.55;100.00
18167;BME280;9208;42.688;23.404;2023-05-01T02:56:22;95511.47;;;10.59;100.00
18167;BME280;9208;42.688;23.404;2023-05-01T02:58:51;95515.25;;;10.62;100.00
18167;BME280;9208;42.688;23.404;2023-05-01T03:01:17;95514.94;;;10.60;100.00
18167;BME280;9208;42.688;23.404;2023-05-01T03:03:43;95519.88;;;10.56;100.00
18167;BME280;9208;42.688;23.404;2023-05-01T03:06:09;95528.19;;;10.47;100.00
18167;BME280;9208;42.688;23.404;2023-05-01T03:08:34;95530.75;;;10.50;100.00
18167;BME280;9208;42.688;23.404;2023-05-01T03:11:04;95531.44;;;10.45;100.00
18167;BME280;9208;42.688;23.404;2023-05-01T03:13:29;95528.41;;;10.43;100.00
18167;BME280;9208;42.688;23.404;2023-05-01T03:15:55;95525.03;;;10.34;100.00
18167;BME280;9208;42.688;23.404;2023-05-01T03:18:20;95524.47;;;10.30;100.00
18167;BME280;9208;42.688;23.404;2023-05-01T03:20:52;95538.16;;;10.30;100.00
18167;BME280;9208;42.688;23.404;2023-05-01T03:23:18;95538.53;;;10.23;100.00
18167;BME280;9208;42.688;23.404;2023-05-01T03:25:44;95528.81;;;10.22;100.00
18167;BME280;9208;42.688;23.404;2023-05-01T03:28:10;95537.22;;;10.18;100.00
18167;BME280;9208;42.688;23.404;2023-05-01T03:30:35;95539.97;;;10.18;100.00
18167;BME280;9208;42.688;23.404;2023-05-01T03:33:01;95531.63;;;10.13;100.00
18167;BME280;9208;42.688;23.404;2023-05-01T03:35:26;95542.28;;;10.10;100.00
18167;BME280;9208;42.688;23.404;2023-05-01T03:37:52;95545.03;;;10.10;100.00
18167;BME280;9208;42.688;23.404;2023-05-01T03:40:17;95540.22;;;10.05;100.00
18167;BME280;9208;42.688;23.404;2023-05-01T03:42:43;95545.09;;;10.01;100.00
18167;BME280;9208;42.688;23.404;2023-05-01T03:45:09;95540.84;;;10.00;100.00
18167;BME280;9208;42.688;23.404;2023-05-01T03:47:35;95545.03;;;9.96;100.00
18167;BME280;9208;42.688;23.404;2023-05-01T03:50:01;95540.75;;;9.95;100.00
18167;BME280;9208;42.688;23.404;2023-05-01T03:52:26;95539.53;;;9.96;100.00
18167;BME280;9208;42.688;23.404;2023-05-01T03:54:52;95546.16;;;9.89;100.00
18167;BME280;9208;42.688;23.404;2023-05-01T03:57:18;95540.91;;;9.77;100.00
18167;BME280;9208;42.688;23.404;2023-05-01T03:59:45;95554.34;;;9.89;100.00
18167;BME280;9208;42.688;23.404;2023-05-01T04:02:11;95553.97;;;9.82;100.00
18167;BME280;9208;42.688;23.404;2023-05-01T04:04:36;95541.50;;;9.81;100.00
18167;BME280;9208;42.688;23.404;2023-05-01T04:07:02;95550.75;;;9.83;100.00
18167;BME280;9208;42.688;23.404;2023-05-01T04:09:29;95552.81;;;9.88;100.00
18167;BME280;9208;42.688;23.404;2023-05-01T04:11:54;95558.97;;;9.83;100.00
18167;BME280;9208;42.688;23.404;2023-05-01T04:14:20;95559.38;;;9.91;100.00
18167;BME280;9208;42.688;23.404;2023-05-01T04:16:46;95555.19;;;9.95;100.00
18167;BME280;9208;42.688;23.404;2023-05-01T04:19:11;95560.91;;;10.06;100.00
18167;BME280;9208;42.688;23.404;2023-05-01T04:21:37;95560.34;;;10.17;100.00
18167;BME280;9208;42.688;23.404;2023-05-01T04:24:03;95564.53;;;10.27;100.00
18167;BME280;9208;42.688;23.404;2023-05-01T04:26:28;95562.16;;;10.35;100.00
18167;BME280;9208;42.688;23.404;2023-05-01T04:28:54;95558.75;;;10.40;100.00
18167;BME280;9208;42.688;23.404;2023-05-01T04:31:19;95567.91;;;10.51;100.00
18167;BME280;9208;42.688;23.404;2023-05-01T04:33:45;95575.81;;;10.64;100.00
18167;BME280;9208;42.688;23.404;2023-05-01T04:36:10;95567.97;;;10.71;100.00
18167;BME280;9208;42.688;23.404;2023-05-01T04:38:36;95578.25;;;10.76;100.00
18167;BME280;9208;42.688;23.404;2023-05-01T04:41:04;95574.53;;;10.94;100.00
18167;BME280;9208;42.688;23.404;2023-05-01T04:43:30;95568.19;;;11.02;100.00
18167;BME280;9208;42.688;23.404;2023-05-01T04:45:55;95584.34;;;11.15;100.00
18167;BME280;9208;42.688;23.404;2023-05-01T04:48:21;95583.84;;;11.16;100.00
18167;BME280;9208;42.688;23.404;2023-05-01T04:50:46;95586.66;;;11.22;100.00
18167;BME280;9208;42.688;23.404;2023-05-01T04:53:11;95585.25;;;11.26;100.00
18167;BME280;9208;42.688;23.404;2023-05-01T04:55:37;95595.25;;;11.29;100.00
18167;BME280;9208;42.688;23.404;2023-05-01T04:58:03;95586.19;;;11.23;100.00
18167;BME280;9208;42.688;23.404;2023-05-01T05:00:29;95593.31;;;11.15;100.00
18167;BME280;9208;42.688;23.404;2023-05-01T05:02:55;95604.63;;;11.23;100.00
18167;BME280;9208;42.688;23.404;2023-05-01T05:05:20;95597.81;;;11.33;100.00
18167;BME280;9208;42.688;23.404;2023-05-01T05:07:46;95593.53;;;11.32;100.00
18167;BME280;9208;42.688;23.404;2023-05-01T05:10:12;95594.84;;;11.36;100.00
18167;BME280;9208;42.688;23.404;2023-05-01T05:12:38;95603.63;;;11.40;100.00
18167;BME280;9208;42.688;23.404;2023-05-01T05:15:04;95611.47;;;11.47;100.00
18167;BME280;9208;42.688;23.404;2023-05-01T05:17:30;95610.97;;;11.49;100.00
18167;BME280;9208;42.688;23.404;2023-05-01T05:19:55;95612.31;;;11.53;100.00
18167;BME280;9208;42.688;23.404;2023-05-01T05:22:21;95608.09;;;11.58;100.00
18167;BME280;9208;42.688;23.404;2023-05-01T05:24:46;95606.75;;;11.68;100.00
18167;BME280;9208;42.688;23.404;2023-05-01T05:27:17;95615.84;;;11.74;100.00
18167;BME280;9208;42.688;23.404;2023-05-01T05:29:43;95614.44;;;11.84;100.00
18167;BME280;9208;42.688;23.404;2023-05-01T05:32:08;95619.81;;;11.93;100.00
18167;BME280;9208;42.688;23.404;2023-05-01T05:34:34;95609.38;;;11.97;100.00
18167;BME280;9208;42.688;23.404;2023-05-01T05:37:00;95604.09;;;11.93;100.00
18167;BME280;9208;42.688;23.404;2023-05-01T05:39:25;95617.31;;;12.15;100.00
18167;BME280;9208;42.688;23.404;2023-05-01T05:41:51;95627.88;;;12.22;100.00
18167;BME280;9208;42.688;23.404;2023-05-01T05:44:18;95626.34;;;12.21;100.00
18167;BME280;9208;42.688;23.404;2023-05-01T05:46:43;95633.34;;;12.22;100.00
18167;BME280;9208;42.688;23.404;2023-05-01T05:49:09;95630.91;;;12.24;100.00
18167;BME280;9208;42.688;23.404;2023-05-01T05:51:35;95631.22;;;12.31;100.00
18167;BME280;9208;42.688;23.404;2023-05-01T05:54:01;95630.53;;;12.36;100.00
18167;BME280;9208;42.688;23.404;2023-05-01T05:56:26;95627.06;;;12.41;100.00
18167;BME280;9208;42.688;23.404;2023-05-01T05:58:52;95631.66;;;12.50;100.00
18167;BME280;9208;42.688;23.404;2023-05-01T06:01:17;95639.94;;;12.55;100.00
18167;BME280;9208;42.688;23.404;2023-05-01T06:03:43;95635.81;;;12.65;100.00
18167;BME280;9208;42.688;23.404;2023-05-01T06:06:08;95645.59;;;12.72;100.00
18167;BME280;9208;42.688;23.404;2023-05-01T06:08:34;95642.44;;;12.79;100.00
18167;BME280;9208;42.688;23.404;2023-05-01T06:11:02;95643.19;;;12.79;100.00
18167;BME280;9208;42.688;23.404;2023-05-01T06:13:27;95646.66;;;12.74;100.00
18167;BME280;9208;42.688;23.404;2023-05-01T06:15:53;95640.63;;;12.76;100.00
18167;BME280;9208;42.688;23.404;2023-05-01T06:18:18;95644.03;;;12.91;100.00
18167;BME280;9208;42.688;23.404;2023-05-01T06:20:44;95644.63;;;13.00;100.00
18167;BME280;9208;42.688;23.404;2023-05-01T06:23:11;95648.94;;;13.07;100.00
18167;BME280;9208;42.688;23.404;2023-05-01T06:25:38;95645.22;;;13.10;100.00
18167;BME280;9208;42.688;23.404;2023-05-01T06:28:04;95643.00;;;13.14;100.00
18167;BME280;9208;42.688;23.404;2023-05-01T06:30:29;95644.78;;;13.17;100.00
18167;BME280;9208;42.688;23.404;2023-05-01T06:32:55;95639.75;;;13.15;100.00
18167;BME280;9208;42.688;23.404;2023-05-01T06:35:20;95631.25;;;13.19;100.00
18167;BME280;9208;42.688;23.404;2023-05-01T06:37:46;95635.88;;;13.33;100.00
18167;BME280;9208;42.688;23.404;2023-05-01T06:40:11;95641.66;;;13.40;100.00
18167;BME280;9208;42.688;23.404;2023-05-01T06:42:37;95647.75;;;13.50;100.00
18167;BME280;9208;42.688;23.404;2023-05-01T06:45:07;95645.53;;;13.54;100.00
18167;BME280;9208;42.688;23.404;2023-05-01T06:47:33;95649.56;;;13.64;100.00
18167;BME280;9208;42.688;23.404;2023-05-01T06:49:58;95649.06;;;13.60;100.00
18167;BME280;9208;42.688;23.404;2023-05-01T06:52:24;95655.84;;;13.64;100.00
18167;BME280;9208;42.688;23.404;2023-05-01T06:54:49;95652.84;;;13.68;100.00
18167;BME280;9208;42.688;23.404;2023-05-01T06:57:15;95638.88;;;13.77;100.00
18167;BME280;9208;42.688;23.404;2023-05-01T06:59:40;95642.44;;;13.88;100.00
18167;BME280;9208;42.688;23.404;2023-05-01T07:02:06;95655.25;;;13.97;100.00
18167;BME280;9208;42.688;23.404;2023-05-01T07:04:32;95651.50;;;14.00;100.00
18167;BME280;9208;42.688;23.404;2023-05-01T07:06:57;95652.25;;;13.95;100.00
18167;BME280;9208;42.688;23.404;2023-05-01T07:09:23;95649.00;;;13.96;100.00
18167;BME280;9208;42.688;23.404;2023-05-01T07:11:48;95661.34;;;14.12;100.00
18167;BME280;9208;42.688;23.404;2023-05-01T07:14:14;95656.16;;;14.25;100.00
18167;BME280;9208;42.688;23.404;2023-05-01T07:16:39;95659.94;;;14.38;100.00
18167;BME280;9208;42.688;23.404;2023-05-01T07:19:05;95651.69;;;14.44;100.00
18167;BME280;9208;42.688;23.404;2023-05-01T07:21:31;95657.22;;;14.49;100.00
18167;BME280;9208;42.688;23.404;2023-05-01T07:23:56;95663.97;;;14.48;100.00
18167;BME280;9208;42.688;23.404;2023-05-01T07:26:25;95650.19;;;14.48;100.00
18167;BME280;9208;42.688;23.404;2023-05-01T07:28:51;95657.00;;;14.64;100.00
18167;BME280;9208;42.688;23.404;2023-05-01T07:31:17;95661.00;;;14.74;100.00
18167;BME280;9208;42.688;23.404;2023-05-01T07:33:43;95664.81;;;14.76;100.00
18167;BME280;9208;42.688;23.404;2023-05-01T07:36:09;95653.00;;;14.70;100.00
18167;BME280;9208;42.688;23.404;2023-05-01T07:38:34;95656.00;;;14.67;100.00
18167;BME280;9208;42.688;23.404;2023-05-01T07:41:00;95661.28;;;14.70;100.00
18167;BME280;9208;42.688;23.404;2023-05-01T07:43:25;95659.28;;;14.76;100.00
18167;BME280;9208;42.688;23.404;2023-05-01T07:45:58;95653.25;;;14.83;100.00
18167;BME280;9208;42.688;23.404;2023-05-01T07:48:25;95661.06;;;14.90;100.00
18167;BME280;9208;42.688;23.404;2023-05-01T07:50:51;95664.06;;;14.92;100.00
18167;BME280;9208;42.688;23.404;2023-05-01T07:53:17;95659.31;;;14.93;100.00
18167;BME280;9208;42.688;23.404;2023-05-01T07:55:43;95660.31;;;15.12;100.00
18167;BME280;9208;42.688;23.404;2023-05-01T07:58:08;95653.28;;;15.22;100.00
18167;BME280;9208;42.688;23.404;2023-05-01T08:00:34;95662.31;;;15.33;100.00
18167;BME280;9208;42.688;23.404;2023-05-01T08:02:59;95655.78;;;15.31;100.00
18167;BME280;9208;42.688;23.404;2023-05-01T08:05:25;95657.31;;;15.37;100.00
18167;BME280;9208;42.688;23.404;2023-05-01T08:07:50;95658.53;;;15.47;100.00
18167;BME280;9208;42.688;23.404;2023-05-01T08:10:16;95663.03;;;15.61;100.00
18167;BME280;9208;42.688;23.404;2023-05-01T08:12:41;95655.25;;;15.76;100.00
18167;BME280;9208;42.688;23.404;2023-05-01T08:15:07;95657.72;;;15.91;100.00
18167;BME280;9208;42.688;23.404;2023-05-01T08:17:34;95660.16;;;16.05;100.00
18167;BME280;9208;42.688;23.404;2023-05-01T08:20:00;95656.34;;;16.19;100.00
18167;BME280;9208;42.688;23.404;2023-05-01T08:22:25;95664.31;;;16.34;100.00
18167;BME280;9208;42.688;23.404;2023-05-01T08:24:50;95662.31;;;16.40;100.00
18167;BME280;9208;42.688;23.404;2023-05-01T08:27:16;95659.25;;;16.49;100.00
18167;BME280;9208;42.688;23.404;2023-05-01T08:29:42;95653.41;;;16.58;100.00
18167;BME280;9208;42.688;23.404;2023-05-01T08:32:13;95664.66;;;16.71;100.00
18167;BME280;9208;42.688;23.404;2023-05-01T08:34:42;95658.31;;;16.81;100.00
18167;BME280;9208;42.688;23.404;2023-05-01T08:37:07;95668.06;;;16.88;100.00
18167;BME280;9208;42.688;23.404;2023-05-01T08:39:32;95667.56;;;16.89;100.00
18167;BME280;9208;42.688;23.404;2023-05-01T08:41:58;95662.16;;;17.08;100.00
18167;BME280;9208;42.688;23.404;2023-05-01T08:44:27;95651.31;;;17.10;100.00
18167;BME280;9208;42.688;23.404;2023-05-01T08:49:37;95659.91;;;17.36;100.00
18167;BME280;9208;42.688;23.404;2023-05-01T08:52:05;95651.81;;;17.38;100.00
18167;BME280;9208;42.688;23.404;2023-05-01T08:54:32;95675.28;;;17.37;100.00
18167;BME280;9208;42.688;23.404;2023-05-01T08:57:01;95670.00;;;17.33;100.00
18167;BME280;9208;42.688;23.404;2023-05-01T08:59:33;95675.31;;;17.61;100.00
18167;BME280;9208;42.688;23.404;2023-05-01T09:02:03;95655.56;;;17.70;100.00
18167;BME280;9208;42.688;23.404;2023-05-01T09:04:39;95653.56;;;17.70;100.00
18167;BME280;9208;42.688;23.404;2023-05-01T09:07:06;95640.13;;;17.80;100.00
18167;BME280;9208;42.688;23.404;2023-05-01T09:09:32;95645.59;;;17.85;100.00
18167;BME280;9208;42.688;23.404;2023-05-01T09:14:43;95646.66;;;18.01;100.00
18167;BME280;9208;42.688;23.404;2023-05-01T09:17:09;95657.94;;;18.08;100.00
18167;BME280;9208;42.688;23.404;2023-05-01T09:19:35;95634.19;;;18.13;100.00
18167;BME280;9208;42.688;23.404;2023-05-01T09:22:01;95653.81;;;18.15;100.00
18167;BME280;9208;42.688;23.404;2023-05-01T09:24:26;95664.34;;;18.22;99.44
18167;BME280;9208;42.688;23.404;2023-05-01T09:26:52;95665.47;;;18.32;99.07
18167;BME280;9208;42.688;23.404;2023-05-01T09:32:22;95666.28;;;18.51;98.75
18167;BME280;9208;42.688;23.404;2023-05-01T09:34:50;95673.56;;;18.54;97.62
18167;BME280;9208;42.688;23.404;2023-05-01T09:37:30;95670.94;;;18.62;96.21
18167;BME280;9208;42.688;23.404;2023-05-01T09:42:32;95688.72;;;18.72;94.01
18167;BME280;9208;42.688;23.404;2023-05-01T09:44:59;95682.63;;;18.73;93.19
18167;BME280;9208;42.688;23.404;2023-05-01T09:47:25;95678.38;;;18.72;93.32
18167;BME280;9208;42.688;23.404;2023-05-01T09:49:55;95672.81;;;18.72;93.58
18167;BME280;9208;42.688;23.404;2023-05-01T09:52:29;95671.97;;;18.77;92.79
18167;BME280;9208;42.688;23.404;2023-05-01T09:55:12;95663.66;;;18.77;93.29
18167;BME280;9208;42.688;23.404;2023-05-01T09:57:38;95703.97;;;18.84;89.64
18167;BME280;9208;42.688;23.404;2023-05-01T10:00:05;95694.81;;;18.89;89.86
18167;BME280;9208;42.688;23.404;2023-05-01T10:02:33;95669.78;;;18.89;90.12
18167;BME280;9208;42.688;23.404;2023-05-01T10:05:01;95682.72;;;19.05;89.72
18167;BME280;9208;42.688;23.404;2023-05-01T10:07:28;95653.56;;;19.11;91.53
18167;BME280;9208;42.688;23.404;2023-05-01T10:09:53;95631.09;;;19.09;94.07
18167;BME280;9208;42.688;23.404;2023-05-01T10:12:27;95637.78;;;19.19;93.80
18167;BME280;9208;42.688;23.404;2023-05-01T10:14:54;95629.66;;;19.21;93.35
18167;BME280;9208;42.688;23.404;2023-05-01T10:17:22;95682.69;;;19.23;87.42
18167;BME280;9208;42.688;23.404;2023-05-01T10:19:48;95680.63;;;19.42;87.12
18167;BME280;9208;42.688;23.404;2023-05-01T10:22:14;95696.94;;;19.51;83.15
18167;BME280;9208;42.688;23.404;2023-05-01T10:24:42;95719.69;;;19.50;80.89
18167;BME280;9208;42.688;23.404;2023-05-01T10:27:08;95723.84;;;19.43;78.91
18167;BME280;9208;42.688;23.404;2023-05-01T10:29:35;95716.47;;;19.46;78.72
18167;BME280;9208;42.688;23.404;2023-05-01T10:32:04;95675.19;;;19.50;82.12
18167;BME280;9208;42.688;23.404;2023-05-01T10:34:37;95662.47;;;19.54;82.18
18167;BME280;9208;42.688;23.404;2023-05-01T10:37:11;95694.59;;;19.55;79.96
18167;BME280;9208;42.688;23.404;2023-05-01T10:39:38;95710.38;;;19.47;78.32
18167;BME280;9208;42.688;23.404;2023-05-01T10:42:05;95733.69;;;19.44;76.43
18167;BME280;9208;42.688;23.404;2023-05-01T10:44:33;95712.94;;;19.45;77.45
18167;BME280;9208;42.688;23.404;2023-05-01T10:46:59;95686.25;;;19.68;79.41
18167;BME280;9208;42.688;23.404;2023-05-01T10:52:29;95689.47;;;19.72;78.71
18167;BME280;9208;42.688;23.404;2023-05-01T10:57:58;95710.59;;;19.81;76.16
18167;BME280;9208;42.688;23.404;2023-05-01T11:00:24;95713.66;;;19.77;76.22
18167;BME280;9208;42.688;23.404;2023-05-01T11:02:49;95700.06;;;19.74;76.51
18167;BME280;9208;42.688;23.404;2023-05-01T11:05:14;95701.47;;;19.80;76.68
18167;BME280;9208;42.688;23.404;2023-05-01T11:07:40;95717.72;;;19.76;74.89
18167;BME280;9208;42.688;23.404;2023-05-01T11:10:24;95728.31;;;19.78;73.98
18167;BME280;9208;42.688;23.404;2023-05-01T11:12:51;95739.94;;;19.95;72.89
18167;BME280;9208;42.688;23.404;2023-05-01T11:15:26;95742.19;;;19.96;71.52
18167;BME280;9208;42.688;23.404;2023-05-01T11:17:52;95759.28;;;19.87;69.44
18167;BME280;9208;42.688;23.404;2023-05-01T11:22:51;95766.78;;;19.92;68.48
18167;BME280;9208;42.688;23.404;2023-05-01T11:25:21;95764.75;;;19.93;68.88
18167;BME280;9208;42.688;23.404;2023-05-01T11:27:48;95764.97;;;19.95;67.35
18167;BME280;9208;42.688;23.404;2023-05-01T11:30:14;95766.03;;;19.92;67.32
18167;BME280;9208;42.688;23.404;2023-05-01T11:32:43;95774.81;;;19.96;66.90
18167;BME280;9208;42.688;23.404;2023-05-01T11:35:18;95785.63;;;19.99;66.25
18167;BME280;9208;42.688;23.404;2023-05-01T11:37:45;95783.53;;;20.05;66.29
18167;BME280;9208;42.688;23.404;2023-05-01T11:40:30;95763.13;;;20.16;68.39
18167;BME280;9208;42.688;23.404;2023-05-01T11:43:07;95753.16;;;20.20;68.84
18167;BME280;9208;42.688;23.404;2023-05-01T11:45:34;95727.78;;;20.24;69.78
18167;BME280;9208;42.688;23.404;2023-05-01T11:48:00;95721.25;;;20.47;71.17
18167;BME280;9208;42.688;23.404;2023-05-01T11:50:34;95749.31;;;20.75;69.02
18167;BME280;9208;42.688;23.404;2023-05-01T11:53:00;95744.69;;;20.91;68.32
18167;BME280;9208;42.688;23.404;2023-05-01T11:55:30;95759.03;;;21.08;68.07
18167;BME280;9208;42.688;23.404;2023-05-01T11:57:56;95765.34;;;21.21;66.98
18167;BME280;9208;42.688;23.404;2023-05-01T12:00:41;95774.72;;;21.44;66.82
18167;BME280;9208;42.688;23.404;2023-05-01T12:03:12;95778.47;;;21.47;66.16
18167;BME280;9208;42.688;23.404;2023-05-01T12:05:39;95784.22;;;21.49;65.62
18167;BME280;9208;42.688;23.404;2023-05-01T12:08:17;95804.63;;;21.44;64.29
18167;BME280;9208;42.688;23.404;2023-05-01T12:10:53;95800.91;;;21.41;65.20
18167;BME280;9208;42.688;23.404;2023-05-01T12:13:23;95788.44;;;21.42;65.65
18167;BME280;9208;42.688;23.404;2023-05-01T12:15:53;95799.34;;;21.53;64.53
18167;BME280;9208;42.688;23.404;2023-05-01T12:18:19;95806.63;;;21.56;65.76
18167;BME280;9208;42.688;23.404;2023-05-01T12:20:52;95793.31;;;21.62;67.09
18167;BME280;9208;42.688;23.404;2023-05-01T12:23:35;95776.28;;;21.53;68.10
18167;BME280;9208;42.688;23.404;2023-05-01T12:26:20;95741.94;;;21.24;70.42
18167;BME280;9208;42.688;23.404;2023-05-01T12:29:06;95748.72;;;21.16;69.73
18167;BME280;9208;42.688;23.404;2023-05-01T12:31:33;95732.41;;;21.20;70.31
18167;BME280;9208;42.688;23.404;2023-05-01T12:34:03;95722.69;;;21.13;70.13
18167;BME280;9208;42.688;23.404;2023-05-01T12:36:31;95730.84;;;20.98;70.32
18167;BME280;9208;42.688;23.404;2023-05-01T12:39:02;95723.91;;;20.92;70.48
18167;BME280;9208;42.688;23.404;2023-05-01T12:44:00;95724.81;;;21.07;70.37
18167;BME280;9208;42.688;23.404;2023-05-01T12:46:26;95736.44;;;20.98;68.49
18167;BME280;9208;42.688;23.404;2023-05-01T12:48:51;95737.38;;;21.01;69.73
18167;BME280;9208;42.688;23.404;2023-05-01T12:51:20;95714.78;;;21.04;70.63
18167;BME280;9208;42.688;23.404;2023-05-01T12:53:47;95707.94;;;20.92;71.65
18167;BME280;9208;42.688;23.404;2023-05-01T12:56:23;95715.00;;;20.93;69.79
18167;BME280;9208;42.688;23.404;2023-05-01T12:58:50;95718.19;;;20.84;69.32
18167;BME280;9208;42.688;23.404;2023-05-01T13:01:24;95712.63;;;20.84;70.85
18167;BME280;9208;42.688;23.404;2023-05-01T13:03:51;95711.75;;;20.89;70.46
18167;BME280;9208;42.688;23.404;2023-05-01T13:06:17;95710.06;;;20.86;70.72
18167;BME280;9208;42.688;23.404;2023-05-01T13:08:43;95717.25;;;20.95;70.19
18167;BME280;9208;42.688;23.404;2023-05-01T13:11:13;95714.84;;;21.12;69.44
18167;BME280;9208;42.688;23.404;2023-05-01T13:13:39;95748.41;;;21.19;69.26
18167;BME280;9208;42.688;23.404;2023-05-01T13:18:32;95750.09;;;21.22;67.80
18167;BME280;9208;42.688;23.404;2023-05-01T13:21:07;95775.19;;;21.22;66.10
18167;BME280;9208;42.688;23.404;2023-05-01T13:23:34;95791.59;;;21.26;64.03
18167;BME280;9208;42.688;23.404;2023-05-01T13:26:09;95799.97;;;21.26;63.66
18167;BME280;9208;42.688;23.404;2023-05-01T13:28:43;95805.88;;;21.22;63.05